This is the latest recevied weather packets stored in our database for station/object HF3P-11. If no packets are shown the sender has not sent any weather packets the latest 10 day(s).
| Time | Temp. | Humidity | Pressure | Rain* | Wind** | Luminosity | Snow |
|---|---|---|---|---|---|---|---|
| 1777764901 | 12.22° C | 56% | 1010.2 hPa | 0 mm | - | - | - |
| 1777762502 | 12.78° C | 54% | 1010.5 hPa | 0 mm | - | - | - |
| 1777761902 | 12.78° C | 54% | 1010.4 hPa | 0 mm | - | - | - |
| 1777761305 | 12.78° C | 53% | 1010.6 hPa | 0 mm | - | - | - |
| 1777761001 | 12.78° C | 53% | 1010.6 hPa | 0 mm | - | - | - |
| 1777760694 | 12.78° C | 53% | 1010.4 hPa | 0 mm | - | - | - |
| 1777760093 | 13.33° C | 53% | 1010.5 hPa | 0 mm | - | - | - |
| 1777759801 | 13.33° C | 53% | 1010.5 hPa | 0 mm | - | - | - |
| 1777759502 | 13.89° C | 52% | 1010.7 hPa | 0 mm | - | - | - |
| 1777758901 | 13.89° C | 51% | 1010.7 hPa | 0 mm | - | - | - |
| 1777757701 | 13.89° C | 51% | 1010.7 hPa | 0 mm | - | - | - |
| 1777757393 | 13.89° C | 51% | 1010.7 hPa | 0 mm | - | - | - |
| 1777757102 | 13.89° C | 51% | 1010.8 hPa | 0 mm | - | - | - |
| 1777756794 | 14.44° C | 51% | 1010.9 hPa | 0 mm | - | - | - |
| 1777756502 | 14.44° C | 50% | 1010.9 hPa | 0 mm | - | - | - |
| 1777756194 | 14.44° C | 50% | 1010.7 hPa | 0 mm | - | - | - |
| 1777755593 | 14.44° C | 49% | 1010.6 hPa | 0 mm | - | - | - |
| 1777755302 | 15° C | 48% | 1010.8 hPa | 0 mm | - | - | - |
| 1777753793 | 15° C | 48% | 1010.9 hPa | 0 mm | - | - | - |
| 1777753501 | 15° C | 48% | 1010.9 hPa | 0 mm | - | - | - |
| 1777753196 | 15.56° C | 48% | 1010.9 hPa | 0 mm | - | - | - |
| 1777752902 | 15.56° C | 48% | 1010.8 hPa | 0 mm | - | - | - |
| 1777752594 | 15.56° C | 47% | 1010.8 hPa | 0 mm | - | - | - |
| 1777751994 | 16.11° C | 46% | 1010.9 hPa | 0 mm | - | - | - |
| 1777750502 | 16.67° C | 44% | 1011 hPa | 0 mm | - | - | - |
* Rain latest hour (hover to see other rain measurements)
** Current wind speed in m/s (hover to see current wind gust speed)